Jard de Penuelas, Puerto Rico
Current Conditions -  °F | °C
As of 9:56 AM on Thursday 23 Oct 2014 (Local Time) from TJSJ Reporting Station
Scattered Clouds Scattered Clouds  
Wind Chill: 87°   Ceiling: Unl
Heat Index: 96°   Visibility: 10mi
Dew Point: 75°   Wind: 7mph
Humidity: 67%   Direction: 100°E
Pressure: 29.96"   Gusts: NA
Location:  18.0112°N, 66.3514°W
Report Text: TJSJ 231356Z 10006KT 10SM FEW032 SCT041 SCT070 31/24 A2996 RMK AO2 SLP144 T03060239
Loading
Personal Weather Stations






























Interactive Weather Map New forecast layout! Learn more

10-Day Weather Forecast

Advertisements
Track Severe Weather on mobile